Time;durP1;ratioP1;P1;durP2;ratioP2;P2;SDS_P1;SDS_P2;PMS_P1;PMS_P2;Temp;Humidity;BMP_temperature;BMP_pressure;BME280_temperature;BME280_humidity;BME280_pressure;Samples;Min_cycle;Max_cycle;Signal;HPM_P1;HPM_P2
2023/01/08 00:01:16;;;;;;;2.10;1.90;;;11.00;99.90;;;;;;4947990;29;20459;-73
2023/01/08 00:03:45;;;;;;;3.03;2.20;;;11.00;99.90;;;;;;4954879;28;20857;-73
2023/01/08 00:06:18;;;;;;;2.00;1.80;;;11.00;99.90;;;;;;4955016;28;20470;-73
2023/01/08 00:08:44;;;;;;;2.20;1.90;;;11.00;99.90;;;;;;4955134;28;20408;-73
2023/01/08 00:11:13;;;;;;;2.67;2.20;;;11.00;99.90;;;;;;4934345;29;20490;-73
2023/01/08 00:13:42;;;;;;;3.20;2.10;;;11.00;99.90;;;;;;4937581;28;20480;-73
2023/01/08 00:16:14;;;;;;;2.63;2.43;;;11.00;99.90;;;;;;4952035;28;20489;-73
2023/01/08 00:18:43;;;;;;;1.90;1.80;;;11.00;99.90;;;;;;4954910;28;20447;-73
2023/01/08 00:21:09;;;;;;;4.20;2.10;;;11.00;99.90;;;;;;4953460;29;20459;-73
2023/01/08 00:23:37;;;;;;;2.20;2.00;;;11.00;99.90;;;;;;4954634;29;20786;-74
2023/01/08 00:26:07;;;;;;;3.10;2.27;;;11.00;99.90;;;;;;4956343;28;20441;-73
2023/01/08 00:28:34;;;;;;;2.33;2.13;;;11.00;99.90;;;;;;4954485;28;20431;-73
2023/01/08 00:31:03;;;;;;;2.47;1.87;;;11.00;99.90;;;;;;4953663;29;20825;-73
2023/01/08 00:33:33;;;;;;;2.63;2.20;;;11.00;99.90;;;;;;4918750;29;20978;-73
2023/01/08 00:35:59;;;;;;;2.07;1.70;;;10.90;99.90;;;;;;4962010;28;20518;-73
2023/01/08 00:38:35;;;;;;;2.00;1.80;;;11.00;99.90;;;;;;4943836;29;20438;-73
2023/01/08 00:41:06;;;;;;;2.37;1.97;;;11.00;99.90;;;;;;4921841;29;21011;-73
2023/01/08 00:43:35;;;;;;;3.70;2.10;;;11.00;99.90;;;;;;4955377;28;20492;-73
2023/01/08 00:46:01;;;;;;;2.80;1.90;;;11.00;99.90;;;;;;4934260;29;20432;-73
2023/01/08 00:48:30;;;;;;;2.00;1.83;;;11.00;99.90;;;;;;4951119;29;20439;-73
2023/01/08 00:51:00;;;;;;;2.03;1.83;;;11.00;99.90;;;;;;4953282;29;20411;-73
2023/01/08 00:53:26;;;;;;;2.30;1.90;;;11.00;99.90;;;;;;4953007;28;20992;-73
2023/01/08 00:56:02;;;;;;;1.70;1.60;;;11.00;99.90;;;;;;4937697;29;20435;-73
2023/01/08 00:58:30;;;;;;;2.37;1.90;;;11.00;99.90;;;;;;4937889;29;20951;-73
2023/01/08 01:01:02;;;;;;;3.37;1.70;;;11.00;99.90;;;;;;4937886;29;20463;-73
2023/01/08 01:03:28;;;;;;;2.40;1.83;;;11.00;99.90;;;;;;4952935;29;20458;-73
2023/01/08 01:06:06;;;;;;;2.63;1.77;;;11.00;99.90;;;;;;4952897;28;20818;-73
2023/01/08 01:08:37;;;;;;;2.33;2.07;;;11.00;99.90;;;;;;4937171;29;20403;-73
2023/01/08 01:11:16;;;;;;;3.93;2.13;;;11.00;99.90;;;;;;4952588;29;20439;-73
2023/01/08 01:13:45;;;;;;;2.20;1.70;;;11.00;99.90;;;;;;4936695;29;20450;-73
2023/01/08 01:16:11;;;;;;;2.60;2.33;;;11.00;99.90;;;;;;4952752;28;20431;-73
2023/01/08 01:18:37;;;;;;;2.70;2.20;;;11.00;99.90;;;;;;4953813;28;20475;-73
2023/01/08 01:21:09;;;;;;;3.93;2.07;;;11.00;99.90;;;;;;4952507;28;20462;-73
2023/01/08 01:23:35;;;;;;;1.87;1.67;;;11.00;99.90;;;;;;4937597;29;20820;-73
2023/01/08 01:26:03;;;;;;;2.17;1.80;;;11.00;99.90;;;;;;4952978;29;20391;-73
2023/01/08 01:28:30;;;;;;;2.50;2.00;;;11.00;99.90;;;;;;4958935;28;20443;-73
2023/01/08 01:30:58;;;;;;;2.60;2.40;;;11.00;99.90;;;;;;4971077;28;20810;-73
2023/01/08 01:33:26;;;;;;;2.20;1.93;;;11.00;99.90;;;;;;4954969;28;20446;-73
2023/01/08 01:36:00;;;;;;;2.47;1.80;;;10.90;99.90;;;;;;4959061;28;20463;-73
2023/01/08 01:38:26;;;;;;;4.70;1.90;;;11.00;99.90;;;;;;4959326;29;20889;-73
2023/01/08 01:40:52;;;;;;;1.97;1.80;;;11.00;99.90;;;;;;4958698;29;20449;-73
2023/01/08 01:43:39;;;;;;;2.70;1.97;;;11.00;99.90;;;;;;4961282;28;20451;-73
2023/01/08 01:46:17;;;;;;;2.70;2.10;;;11.00;99.90;;;;;;4955955;28;20439;-73
2023/01/08 01:48:44;;;;;;;2.40;1.63;;;11.00;99.90;;;;;;4957954;28;20427;-73
2023/01/08 01:51:11;;;;;;;2.40;1.90;;;11.00;99.90;;;;;;4958880;28;20462;-73
2023/01/08 01:53:37;;;;;;;1.83;1.67;;;11.00;99.90;;;;;;4959773;28;20536;-73
2023/01/08 01:56:04;;;;;;;2.17;1.97;;;11.00;99.90;;;;;;4959027;28;20527;-72
2023/01/08 01:58:31;;;;;;;3.00;2.10;;;11.00;99.90;;;;;;4963280;28;21003;-72
2023/01/08 02:01:03;;;;;;;2.20;1.90;;;11.00;99.90;;;;;;4958595;29;20407;-72
2023/01/08 02:03:34;;;;;;;2.77;2.10;;;11.00;99.90;;;;;;4942769;29;20809;-72
2023/01/08 02:06:19;;;;;;;2.17;1.70;;;11.00;99.90;;;;;;4942948;29;20430;-73
2023/01/08 02:09:05;;;;;;;2.83;2.10;;;11.00;99.90;;;;;;4942908;29;20848;-73
2023/01/08 02:11:37;;;;;;;4.20;2.50;;;11.00;99.90;;;;;;4959995;29;20893;-73
2023/01/08 02:14:18;;;;;;;2.40;2.20;;;11.00;99.90;;;;;;4955875;28;20454;-72
2023/01/08 02:17:07;;;;;;;3.47;1.67;;;11.00;99.90;;;;;;4940332;29;20566;-72
2023/01/08 02:19:51;;;;;;;2.10;1.90;;;11.00;99.90;;;;;;4942729;28;20450;-73
2023/01/08 02:22:20;;;;;;;1.70;1.50;;;11.00;99.90;;;;;;4979198;28;20473;-73
2023/01/08 02:25:15;;;;;;;2.00;1.70;;;11.00;99.90;;;;;;4960940;28;20454;-72
2023/01/08 02:27:47;;;;;;;2.03;1.83;;;11.00;99.90;;;;;;4922522;29;20463;-72
2023/01/08 02:30:18;;;;;;;4.03;2.30;;;11.00;99.90;;;;;;4959500;28;20943;-72
2023/01/08 02:32:44;;;;;;;2.60;2.10;;;11.00;99.90;;;;;;4958210;29;20976;-72
2023/01/08 02:35:11;;;;;;;2.40;2.00;;;11.00;99.90;;;;;;4940434;29;20487;-73
2023/01/08 02:37:37;;;;;;;3.77;2.67;;;10.90;99.90;;;;;;4955229;29;20408;-73
2023/01/08 02:40:07;;;;;;;4.03;1.80;;;11.00;99.90;;;;;;4953597;28;20427;-72
2023/01/08 02:42:57;;;;;;;5.20;2.30;;;11.00;99.90;;;;;;4935835;29;20879;-73
2023/01/08 02:45:45;;;;;;;2.30;1.70;;;11.00;99.90;;;;;;4936669;29;20993;-73
2023/01/08 02:48:21;;;;;;;2.47;1.87;;;11.00;99.90;;;;;;4930792;29;20447;-72
2023/01/08 02:50:59;;;;;;;2.40;2.10;;;10.90;99.90;;;;;;4943223;29;20972;-72
2023/01/08 02:53:32;;;;;;;3.20;2.03;;;11.00;99.90;;;;;;4955219;29;20453;-73
2023/01/08 02:56:03;;;;;;;3.17;2.30;;;11.00;99.90;;;;;;4939564;29;20419;-73
2023/01/08 02:58:31;;;;;;;3.17;2.20;;;10.90;99.90;;;;;;4939378;29;20415;-72
2023/01/08 03:01:01;;;;;;;3.60;2.73;;;11.00;99.90;;;;;;4962842;28;20450;-72
2023/01/08 03:03:28;;;;;;;2.17;1.83;;;11.00;99.90;;;;;;4939470;28;20457;-73
2023/01/08 03:06:09;;;;;;;3.10;1.93;;;11.00;99.90;;;;;;4955494;29;20938;-73
2023/01/08 03:08:39;;;;;;;2.53;2.03;;;11.00;99.90;;;;;;4954788;28;20442;-72
2023/01/08 03:11:11;;;;;;;3.30;2.37;;;10.90;99.90;;;;;;4954978;29;20431;-72
2023/01/08 03:14:03;;;;;;;2.23;1.97;;;11.00;99.90;;;;;;4935486;29;20510;-73
2023/01/08 03:16:36;;;;;;;2.80;2.20;;;11.00;99.90;;;;;;4951964;29;20444;-73
2023/01/08 03:19:13;;;;;;;2.03;1.83;;;11.00;99.90;;;;;;4954303;29;20466;-72
2023/01/08 03:21:43;;;;;;;2.30;2.10;;;10.90;99.90;;;;;;4954361;28;20474;-73
2023/01/08 03:24:28;;;;;;;2.83;2.30;;;11.00;99.90;;;;;;4954491;29;20502;-72
2023/01/08 03:27:04;;;;;;;2.37;1.93;;;10.90;99.90;;;;;;4955365;28;20561;-72
2023/01/08 03:29:31;;;;;;;2.40;2.07;;;10.90;99.90;;;;;;4954338;28;21009;-72
2023/01/08 03:32:03;;;;;;;3.23;2.30;;;10.90;99.90;;;;;;4946102;28;20839;-73
2023/01/08 03:34:31;;;;;;;3.90;2.50;;;10.90;99.90;;;;;;4938600;29;20464;-72
2023/01/08 03:37:03;;;;;;;3.63;2.13;;;10.90;99.90;;;;;;4938900;29;20570;-72
2023/01/08 03:39:45;;;;;;;2.83;2.10;;;10.90;99.90;;;;;;4954257;29;20423;-72
2023/01/08 03:42:14;;;;;;;2.10;1.90;;;10.90;99.90;;;;;;4935372;29;20582;-72
2023/01/08 03:44:42;;;;;;;2.40;2.10;;;11.00;99.90;;;;;;4953868;29;20528;-73
2023/01/08 03:47:10;;;;;;;4.33;2.43;;;11.00;99.90;;;;;;4954207;28;20445;-73
2023/01/08 03:49:39;;;;;;;1.83;1.70;;;11.00;99.90;;;;;;4953834;28;20422;-72
2023/01/08 03:52:07;;;;;;;2.90;2.50;;;11.00;99.90;;;;;;4954232;29;20442;-73
2023/01/08 03:54:36;;;;;;;4.20;2.50;;;11.00;99.90;;;;;;4954823;28;20492;-73
2023/01/08 03:57:02;;;;;;;2.83;2.13;;;11.00;99.90;;;;;;4970350;28;20399;-73
2023/01/08 03:59:28;;;;;;;4.30;2.67;;;11.00;99.90;;;;;;4954175;29;20430;-72
2023/01/08 04:01:56;;;;;;;3.23;2.27;;;10.90;99.90;;;;;;4953918;29;20459;-73
2023/01/08 04:04:22;;;;;;;3.60;2.77;;;11.00;99.90;;;;;;4954113;29;20815;-72
2023/01/08 04:06:52;;;;;;;3.53;2.30;;;11.00;99.90;;;;;;4954070;29;20264;-72
2023/01/08 04:09:18;;;;;;;2.60;2.27;;;11.00;99.90;;;;;;4953063;29;20450;-72
2023/01/08 04:11:47;;;;;;;3.03;2.60;;;10.90;99.90;;;;;;4954679;28;20447;-72
2023/01/08 04:14:13;;;;;;;3.00;2.37;;;10.90;99.90;;;;;;4956929;28;20451;-73
2023/01/08 04:16:42;;;;;;;2.83;2.37;;;11.00;99.90;;;;;;4929364;29;20442;-73
2023/01/08 04:19:10;;;;;;;2.77;2.57;;;10.90;99.90;;;;;;4955016;28;20434;-73
2023/01/08 04:21:35;;;;;;;5.00;2.50;;;10.90;99.90;;;;;;4954277;28;20458;-72
2023/01/08 04:24:02;;;;;;;2.93;2.23;;;11.00;99.90;;;;;;4957410;28;20813;-72
2023/01/08 04:26:30;;;;;;;2.30;2.07;;;10.90;99.90;;;;;;4953222;28;20820;-72
2023/01/08 04:29:01;;;;;;;6.97;2.43;;;10.90;99.90;;;;;;4954677;28;20510;-72
2023/01/08 04:31:31;;;;;;;2.50;2.30;;;11.00;99.90;;;;;;4954373;28;20419;-72
2023/01/08 04:34:02;;;;;;;4.33;2.33;;;10.90;99.90;;;;;;4953184;28;20461;-72
2023/01/08 04:36:28;;;;;;;2.50;2.20;;;10.90;99.90;;;;;;4954547;28;20407;-73
2023/01/08 04:38:55;;;;;;;2.63;2.10;;;10.90;99.90;;;;;;4934433;29;20946;-72
2023/01/08 04:41:21;;;;;;;3.80;2.60;;;10.90;99.90;;;;;;4943149;29;20474;-73
2023/01/08 04:43:46;;;;;;;3.90;2.30;;;10.90;99.90;;;;;;4953216;29;20443;-72
2023/01/08 04:46:15;;;;;;;3.30;2.13;;;10.90;99.90;;;;;;4953438;29;20490;-72
2023/01/08 04:48:41;;;;;;;4.03;2.63;;;10.90;99.90;;;;;;4952961;29;20415;-72
2023/01/08 04:51:12;;;;;;;3.80;2.40;;;10.90;99.90;;;;;;4927394;29;20454;-73
2023/01/08 04:53:40;;;;;;;3.33;2.43;;;10.90;99.90;;;;;;4952491;29;20939;-73
2023/01/08 04:56:08;;;;;;;2.47;2.20;;;10.90;99.90;;;;;;4918437;29;20440;-73
2023/01/08 04:58:40;;;;;;;2.10;1.90;;;11.00;99.90;;;;;;4952574;29;20931;-73
2023/01/08 05:01:23;;;;;;;2.70;2.50;;;10.90;99.90;;;;;;4933635;29;20468;-73
2023/01/08 05:03:59;;;;;;;2.57;2.10;;;10.90;99.90;;;;;;4952248;28;20978;-73
2023/01/08 05:06:29;;;;;;;2.57;1.77;;;10.90;99.90;;;;;;4937282;29;20899;-73
2023/01/08 05:08:58;;;;;;;2.70;2.20;;;10.90;99.90;;;;;;4954060;28;20518;-72
2023/01/08 05:11:24;;;;;;;3.13;2.30;;;10.90;99.90;;;;;;4941702;29;20444;-72
2023/01/08 05:13:52;;;;;;;2.33;2.13;;;10.90;99.90;;;;;;4925073;29;20559;-73
2023/01/08 05:16:18;;;;;;;4.07;2.13;;;10.90;99.90;;;;;;4960312;28;20502;-73
2023/01/08 05:18:45;;;;;;;1.93;1.70;;;10.90;99.90;;;;;;4953605;29;20550;-73
2023/01/08 05:21:17;;;;;;;3.17;2.40;;;10.90;99.90;;;;;;4952621;29;20471;-72
2023/01/08 05:23:46;;;;;;;2.93;1.87;;;10.90;99.90;;;;;;4952184;28;20455;-73
2023/01/08 05:26:15;;;;;;;3.20;2.40;;;10.90;99.90;;;;;;4953088;29;20446;-73
2023/01/08 05:28:42;;;;;;;3.27;2.20;;;10.90;99.90;;;;;;4920250;29;20478;-73
2023/01/08 05:31:07;;;;;;;2.30;2.00;;;10.90;99.90;;;;;;4952443;29;20864;-73
2023/01/08 05:33:36;;;;;;;2.93;2.10;;;10.90;99.90;;;;;;4952323;29;20451;-72
2023/01/08 05:36:10;;;;;;;5.80;2.00;;;10.90;99.90;;;;;;4952919;29;20447;-72
2023/01/08 05:38:37;;;;;;;2.87;2.30;;;10.90;99.90;;;;;;4921180;29;20457;-73
2023/01/08 05:41:08;;;;;;;3.43;2.20;;;10.90;99.90;;;;;;4952345;29;20481;-73
2023/01/08 05:43:37;;;;;;;2.70;2.20;;;10.90;99.90;;;;;;4952622;29;20443;-72
2023/01/08 05:46:04;;;;;;;2.90;2.20;;;10.90;99.90;;;;;;4952351;29;20422;-72
2023/01/08 05:48:36;;;;;;;3.07;1.77;;;10.90;99.90;;;;;;4968575;28;20463;-73
2023/01/08 05:51:03;;;;;;;2.50;1.80;;;10.90;99.90;;;;;;4958200;28;20424;-73
2023/01/08 05:53:31;;;;;;;2.30;1.83;;;10.90;99.90;;;;;;4940299;29;20443;-72
2023/01/08 05:56:05;;;;;;;2.30;1.87;;;10.90;99.90;;;;;;4952429;29;20451;-73
2023/01/08 05:58:39;;;;;;;2.03;1.70;;;10.90;99.90;;;;;;4936680;29;20445;-72
2023/01/08 06:01:11;;;;;;;2.93;1.53;;;10.90;99.90;;;;;;4952823;28;20395;-72
2023/01/08 06:03:38;;;;;;;2.30;2.10;;;10.90;99.90;;;;;;4951933;29;20480;-72
2023/01/08 06:06:06;;;;;;;4.20;1.70;;;10.90;99.90;;;;;;4952465;29;20430;-72
2023/01/08 06:08:35;;;;;;;2.00;1.50;;;10.90;99.90;;;;;;4937101;29;20418;-72
2023/01/08 06:11:06;;;;;;;2.00;1.80;;;10.90;99.90;;;;;;4961593;28;20416;-73
2023/01/08 06:13:36;;;;;;;2.60;1.80;;;10.90;99.90;;;;;;4949700;28;20449;-74
2023/01/08 06:16:02;;;;;;;1.63;1.40;;;10.90;99.90;;;;;;4956379;28;20975;-73
2023/01/08 06:18:29;;;;;;;2.10;1.57;;;10.90;99.90;;;;;;4956931;29;20459;-73
2023/01/08 06:21:01;;;;;;;1.80;1.60;;;10.90;99.90;;;;;;4940250;29;20442;-73
2023/01/08 06:23:27;;;;;;;2.30;1.63;;;10.90;99.90;;;;;;4939560;29;20485;-73
2023/01/08 06:25:55;;;;;;;4.03;1.90;;;10.90;99.90;;;;;;4939778;29;20466;-73
2023/01/08 06:28:26;;;;;;;1.67;1.57;;;10.90;99.90;;;;;;4954530;28;20466;-73
2023/01/08 06:30:57;;;;;;;3.30;2.23;;;10.90;99.90;;;;;;4955294;29;20482;-73
2023/01/08 06:33:25;;;;;;;1.70;1.40;;;10.90;99.90;;;;;;4956665;28;20973;-73
2023/01/08 06:35:59;;;;;;;3.00;1.67;;;10.90;99.90;;;;;;4955626;29;20422;-73
2023/01/08 06:38:25;;;;;;;1.73;1.63;;;10.90;99.90;;;;;;4955032;29;20562;-73
2023/01/08 06:40:51;;;;;;;2.07;1.30;;;10.90;99.90;;;;;;4956534;28;20863;-73
2023/01/08 06:43:20;;;;;;;1.93;1.50;;;10.90;99.90;;;;;;4954188;29;20509;-73
2023/01/08 06:45:53;;;;;;;2.60;1.60;;;11.00;99.90;;;;;;4939881;29;20797;-73
2023/01/08 06:48:26;;;;;;;2.33;1.17;;;11.00;99.90;;;;;;4955092;28;20469;-73
2023/01/08 06:50:52;;;;;;;1.87;0.97;;;10.90;99.90;;;;;;4956549;28;20404;-73
2023/01/08 06:53:23;;;;;;;2.43;1.37;;;11.00;99.90;;;;;;4955179;29;20453;-73
2023/01/08 06:55:55;;;;;;;3.70;1.43;;;10.90;99.90;;;;;;4955753;29;20423;-73
2023/01/08 06:58:23;;;;;;;1.97;1.20;;;10.90;99.90;;;;;;4956376;28;20437;-73
2023/01/08 07:00:52;;;;;;;1.23;1.03;;;10.90;99.90;;;;;;4955255;29;20933;-73
2023/01/08 07:03:21;;;;;;;1.40;1.30;;;10.90;99.90;;;;;;4956039;28;20446;-73
2023/01/08 07:05:54;;;;;;;3.10;2.07;;;10.90;99.90;;;;;;4956494;28;21056;-73
2023/01/08 07:08:22;;;;;;;3.10;1.37;;;10.90;99.90;;;;;;4939417;29;20427;-73
2023/01/08 07:10:49;;;;;;;2.50;1.70;;;10.80;99.90;;;;;;4954744;29;20450;-73
2023/01/08 07:13:35;;;;;;;2.17;1.37;;;10.80;99.90;;;;;;4936867;28;20464;-73
2023/01/08 07:16:09;;;;;;;1.93;1.20;;;10.80;99.90;;;;;;4957705;28;20790;-73
2023/01/08 07:18:36;;;;;;;1.33;1.13;;;10.80;99.90;;;;;;4952897;28;20443;-73
2023/01/08 07:21:07;;;;;;;3.20;1.40;;;10.90;99.90;;;;;;4936776;29;20399;-73
2023/01/08 07:23:37;;;;;;;2.03;1.27;;;10.80;99.90;;;;;;4951346;29;20534;-73
2023/01/08 07:26:06;;;;;;;2.10;1.37;;;10.90;99.90;;;;;;4954160;28;20483;-73
2023/01/08 07:28:32;;;;;;;1.00;0.90;;;10.80;99.90;;;;;;4954509;28;20455;-73
2023/01/08 07:31:07;;;;;;;1.63;1.17;;;10.80;99.90;;;;;;4954260;28;20447;-73
2023/01/08 07:33:35;;;;;;;1.63;1.10;;;10.80;99.90;;;;;;4955105;28;20505;-73
2023/01/08 07:36:01;;;;;;;2.07;1.57;;;10.90;99.90;;;;;;4955858;29;20415;-73
2023/01/08 07:38:28;;;;;;;3.47;1.30;;;10.80;99.90;;;;;;4954799;29;20431;-73
2023/01/08 07:40:55;;;;;;;3.53;1.20;;;10.80;99.90;;;;;;4954151;29;20457;-73
2023/01/08 07:43:21;;;;;;;3.47;1.33;;;10.80;99.90;;;;;;4934789;29;20855;-72
2023/01/08 07:45:50;;;;;;;2.07;1.23;;;10.80;99.90;;;;;;4954201;28;20498;-72
2023/01/08 07:48:36;;;;;;;3.27;1.13;;;10.80;99.90;;;;;;4955517;29;20820;-72
2023/01/08 07:51:09;;;;;;;2.00;1.17;;;10.80;99.90;;;;;;4953301;28;20960;-72
2023/01/08 07:53:37;;;;;;;2.57;1.00;;;10.80;99.90;;;;;;4953303;28;20443;-73
2023/01/08 07:56:07;;;;;;;2.40;1.00;;;10.80;99.90;;;;;;4953490;28;20419;-72
2023/01/08 07:58:36;;;;;;;2.17;1.27;;;10.80;99.90;;;;;;4952522;29;20439;-72
2023/01/08 08:01:08;;;;;;;2.80;1.33;;;10.80;99.90;;;;;;4951900;29;20800;-72
2023/01/08 08:03:34;;;;;;;1.10;1.00;;;10.80;99.90;;;;;;4934792;29;20546;-71
2023/01/08 08:06:02;;;;;;;1.80;1.13;;;10.80;99.90;;;;;;4951850;29;20506;-72
2023/01/08 08:08:37;;;;;;;3.40;1.27;;;10.80;99.90;;;;;;4949053;29;20447;-72
2023/01/08 08:11:03;;;;;;;1.77;1.23;;;10.80;99.90;;;;;;4966579;28;20419;-71
2023/01/08 08:13:32;;;;;;;5.37;2.40;;;10.80;99.90;;;;;;4930954;29;20468;-71
2023/01/08 08:16:05;;;;;;;6.50;2.50;;;10.80;99.90;;;;;;4941986;29;20490;-72
2023/01/08 08:18:36;;;;;;;3.13;1.77;;;10.80;99.90;;;;;;4952448;28;20442;-71
2023/01/08 08:21:05;;;;;;;4.00;1.90;;;10.80;99.90;;;;;;4951209;29;20417;-72
2023/01/08 08:23:33;;;;;;;5.43;2.80;;;10.80;99.90;;;;;;4953109;28;20475;-71
2023/01/08 08:26:03;;;;;;;4.70;2.80;;;10.80;99.90;;;;;;4952659;29;20453;-72
2023/01/08 08:28:36;;;;;;;4.10;2.67;;;10.80;99.90;;;;;;4948518;28;20558;-73
2023/01/08 08:31:04;;;;;;;4.43;2.70;;;10.80;99.90;;;;;;4968202;28;20410;-72
2023/01/08 08:33:33;;;;;;;5.13;2.50;;;10.80;99.90;;;;;;4945233;29;20502;-74
2023/01/08 08:36:01;;;;;;;3.70;2.43;;;10.80;99.90;;;;;;4933619;29;20462;-75
2023/01/08 08:38:29;;;;;;;6.97;2.50;;;10.70;99.90;;;;;;4953078;28;20445;-74
2023/01/08 08:40:55;;;;;;;5.73;3.20;;;10.80;99.90;;;;;;4951816;28;21304;-74
2023/01/08 08:43:22;;;;;;;4.60;2.40;;;10.70;99.90;;;;;;4952680;28;20478;-75
2023/01/08 08:45:48;;;;;;;4.27;2.43;;;10.80;99.90;;;;;;4953230;29;20419;-75
2023/01/08 08:48:15;;;;;;;6.37;2.00;;;10.70;99.90;;;;;;4935949;29;20534;-75
2023/01/08 08:50:41;;;;;;;4.77;2.50;;;10.70;99.90;;;;;;4920426;29;20430;-75
2023/01/08 08:53:11;;;;;;;4.40;2.50;;;10.70;99.90;;;;;;4952167;29;20451;-75
2023/01/08 08:55:39;;;;;;;4.83;1.90;;;10.70;99.90;;;;;;4936626;29;20659;-74
2023/01/08 08:58:12;;;;;;;3.77;2.27;;;10.70;99.90;;;;;;4952030;29;20454;-74
2023/01/08 09:00:41;;;;;;;4.23;2.37;;;10.70;99.90;;;;;;4953077;28;20411;-74
2023/01/08 09:03:14;;;;;;;4.33;2.37;;;10.70;99.90;;;;;;4954577;28;20467;-74
2023/01/08 09:05:44;;;;;;;3.77;2.13;;;10.70;99.90;;;;;;4936547;29;20419;-75
2023/01/08 09:08:16;;;;;;;5.30;1.90;;;10.70;99.90;;;;;;4933360;29;20428;-74
2023/01/08 09:10:44;;;;;;;7.30;2.50;;;10.70;99.90;;;;;;4949316;29;20502;-73
2023/01/08 09:13:11;;;;;;;3.53;2.10;;;10.70;99.90;;;;;;4941563;29;20515;-75
2023/01/08 09:15:43;;;;;;;3.37;1.80;;;10.70;99.90;;;;;;4932869;29;20445;-75
2023/01/08 09:18:12;;;;;;;4.00;1.93;;;10.70;99.90;;;;;;4971036;28;20473;-75
2023/01/08 09:20:38;;;;;;;3.90;2.20;;;10.70;99.90;;;;;;4954153;28;20421;-75
2023/01/08 09:23:07;;;;;;;3.00;2.00;;;10.70;99.90;;;;;;4972566;28;20446;-76
2023/01/08 09:25:34;;;;;;;3.53;2.10;;;10.70;99.90;;;;;;4972685;28;20423;-75
2023/01/08 09:28:05;;;;;;;4.00;2.00;;;10.70;99.90;;;;;;4970099;28;20588;-75
2023/01/08 09:30:32;;;;;;;3.83;2.13;;;10.70;99.90;;;;;;4973026;28;20791;-75
2023/01/08 09:32:58;;;;;;;4.00;1.93;;;10.70;99.90;;;;;;4972176;28;20915;-75
2023/01/08 09:35:25;;;;;;;2.97;1.50;;;10.70;99.90;;;;;;4972366;28;20411;-75
2023/01/08 09:37:57;;;;;;;4.20;1.87;;;10.70;99.90;;;;;;4959585;28;20769;-75
2023/01/08 09:40:35;;;;;;;4.37;2.07;;;10.70;99.90;;;;;;4936776;29;20482;-75
2023/01/08 09:43:04;;;;;;;6.53;2.27;;;10.70;99.90;;;;;;4949592;28;20472;-75
2023/01/08 09:45:37;;;;;;;5.80;1.80;;;10.70;99.90;;;;;;4933938;29;20451;-75
2023/01/08 09:48:17;;;;;;;5.33;1.73;;;10.70;99.90;;;;;;4950335;28;20404;-75
2023/01/08 09:50:43;;;;;;;6.20;1.80;;;10.70;99.90;;;;;;4953704;29;20412;-75
2023/01/08 09:53:15;;;;;;;4.47;1.97;;;10.70;99.90;;;;;;4986012;28;20838;-75
2023/01/08 09:55:51;;;;;;;5.83;1.87;;;10.60;99.90;;;;;;4976237;28;20756;-75
2023/01/08 09:58:29;;;;;;;4.63;1.83;;;10.70;99.90;;;;;;4976042;28;20414;-75
2023/01/08 10:01:29;;;;;;;2.97;1.60;;;10.70;99.90;;;;;;4975330;28;20843;-75
2023/01/08 10:04:20;;;;;;;5.20;1.60;;;10.70;99.90;;;;;;4970986;28;20450;-75
2023/01/08 10:07:00;;;;;;;4.47;1.90;;;10.60;99.90;;;;;;4954496;29;20451;-75
2023/01/08 10:09:29;;;;;;;1.87;1.43;;;10.70;99.90;;;;;;4937317;29;20914;-75
2023/01/08 10:11:59;;;;;;;4.87;1.53;;;10.70;99.90;;;;;;4944010;28;21011;-75
2023/01/08 10:14:31;;;;;;;3.60;1.60;;;10.70;99.90;;;;;;4959957;28;20449;-75
2023/01/08 10:17:26;;;;;;;3.90;1.70;;;10.70;99.90;;;;;;4959514;28;20414;-75
2023/01/08 10:19:52;;;;;;;5.90;1.90;;;10.70;99.90;;;;;;4928705;29;20466;-75
2023/01/08 10:22:24;;;;;;;3.43;1.97;;;10.70;99.90;;;;;;4936780;29;20483;-75
2023/01/08 10:24:51;;;;;;;3.90;1.67;;;10.70;99.90;;;;;;4936824;29;20479;-75
2023/01/08 10:27:22;;;;;;;2.23;1.50;;;10.70;99.90;;;;;;4939359;28;20459;-75
2023/01/08 10:29:51;;;;;;;3.50;1.70;;;10.70;99.90;;;;;;4957043;28;20423;-75
2023/01/08 10:32:30;;;;;;;2.83;1.30;;;10.70;99.90;;;;;;4955987;28;20924;-75
2023/01/08 10:35:04;;;;;;;3.80;1.77;;;10.70;99.90;;;;;;4953464;29;20477;-75
2023/01/08 10:37:46;;;;;;;7.07;1.50;;;10.70;99.90;;;;;;4956103;29;20433;-75
2023/01/08 10:40:36;;;;;;;3.03;1.50;;;10.70;99.90;;;;;;4955711;29;20781;-75
2023/01/08 10:43:11;;;;;;;3.17;1.60;;;10.70;99.90;;;;;;4955289;29;20522;-75
2023/01/08 10:45:43;;;;;;;2.63;1.30;;;10.70;99.90;;;;;;4955450;29;20841;-75
2023/01/08 10:48:16;;;;;;;3.00;1.30;;;10.70;99.90;;;;;;4970902;28;20469;-75
2023/01/08 10:51:02;;;;;;;2.50;1.63;;;10.70;99.90;;;;;;4940773;29;20496;-75
2023/01/08 10:53:33;;;;;;;4.57;1.30;;;10.70;99.90;;;;;;4955309;29;20543;-75
2023/01/08 10:56:06;;;;;;;4.30;1.60;;;10.70;99.90;;;;;;4955270;28;20840;-75
2023/01/08 10:58:42;;;;;;;2.00;1.20;;;10.80;99.90;;;;;;4939402;29;20423;-75
2023/01/08 11:01:12;;;;;;;2.90;1.20;;;10.80;99.90;;;;;;4954295;28;20428;-75
2023/01/08 11:03:39;;;;;;;4.77;1.90;;;10.80;99.90;;;;;;4941525;29;20521;-75
2023/01/08 11:06:15;;;;;;;2.70;1.83;;;10.80;99.90;;;;;;4922963;29;20444;-74
2023/01/08 11:08:50;;;;;;;4.67;1.80;;;10.80;99.90;;;;;;4937139;29;20828;-75
2023/01/08 11:11:16;;;;;;;4.30;1.43;;;10.80;99.90;;;;;;4954941;28;20453;-75
2023/01/08 11:13:58;;;;;;;4.80;1.53;;;10.80;99.90;;;;;;4956276;29;20448;-75
2023/01/08 11:16:36;;;;;;;2.57;1.37;;;10.80;99.90;;;;;;4954959;29;20463;-75
2023/01/08 11:19:13;;;;;;;4.20;1.30;;;10.80;99.90;;;;;;4970975;28;20921;-75
2023/01/08 11:21:56;;;;;;;2.27;0.93;;;10.80;99.90;;;;;;4970606;28;20564;-75
2023/01/08 11:24:37;;;;;;;1.87;1.20;;;10.80;99.90;;;;;;4955997;28;20939;-75
2023/01/08 11:27:35;;;;;;;2.20;1.00;;;10.90;99.90;;;;;;4955995;28;20408;-75
2023/01/08 11:30:09;;;;;;;5.70;1.60;;;10.90;99.90;;;;;;4965172;28;20431;-75
2023/01/08 11:32:47;;;;;;;5.83;1.93;;;10.80;99.90;;;;;;4964335;28;20419;-74
2023/01/08 11:35:35;;;;;;;2.77;1.30;;;10.90;99.90;;;;;;4954570;29;20517;-75
2023/01/08 11:38:01;;;;;;;3.40;1.30;;;10.90;99.90;;;;;;4954616;29;20395;-75
2023/01/08 11:40:43;;;;;;;2.20;1.10;;;10.90;99.90;;;;;;4954608;29;20486;-74
2023/01/08 11:43:48;;;;;;;4.83;1.70;;;10.90;99.90;;;;;;4953844;29;20458;-75
2023/01/08 11:46:44;;;;;;;4.47;1.57;;;10.90;99.90;;;;;;4938580;29;20439;-75
2023/01/08 11:49:25;;;;;;;3.57;1.87;;;10.90;99.90;;;;;;4937218;29;20428;-75
2023/01/08 11:52:07;;;;;;;3.33;1.30;;;10.90;99.90;;;;;;4954610;29;20434;-74
2023/01/08 11:54:57;;;;;;;4.70;1.30;;;10.90;99.90;;;;;;4957855;28;20446;-76
2023/01/08 11:57:56;;;;;;;2.40;1.37;;;10.90;99.90;;;;;;4973679;28;20450;-75
2023/01/08 12:01:12;;;;;;;3.43;1.00;;;10.90;99.90;;;;;;4974739;28;20398;-75
2023/01/08 12:03:41;;;;;;;1.43;0.97;;;10.90;99.90;;;;;;4957215;28;20446;-75
2023/01/08 12:06:38;;;;;;;2.03;1.33;;;10.90;99.90;;;;;;4961123;28;20783;-75
2023/01/08 12:09:12;;;;;;;1.87;1.00;;;10.90;99.90;;;;;;4953712;29;20446;-74
2023/01/08 12:11:51;;;;;;;2.50;1.20;;;10.90;99.90;;;;;;4919234;29;20428;-75
2023/01/08 12:14:49;;;;;;;2.40;0.80;;;10.90;99.90;;;;;;4933690;29;20439;-75
2023/01/08 12:17:40;;;;;;;2.47;0.80;;;10.90;99.90;;;;;;4949412;29;20438;-75
2023/01/08 12:20:29;;;;;;;1.33;0.80;;;10.90;99.90;;;;;;4953833;29;20501;-75
2023/01/08 12:23:18;;;;;;;2.63;1.10;;;10.90;99.90;;;;;;4968847;28;20899;-75
2023/01/08 12:25:54;;;;;;;1.67;1.00;;;10.90;99.90;;;;;;4943653;29;20463;-74
2023/01/08 12:28:37;;;;;;;1.43;0.80;;;10.90;99.90;;;;;;4935613;29;20550;-76
2023/01/08 12:31:39;;;;;;;1.70;0.87;;;10.90;99.90;;;;;;4954079;29;20915;-75
2023/01/08 12:34:16;;;;;;;1.83;0.80;;;10.80;99.90;;;;;;4953446;29;20948;-75
2023/01/08 12:36:48;;;;;;;2.17;0.80;;;10.80;99.90;;;;;;4953605;29;20430;-75
2023/01/08 12:39:32;;;;;;;1.77;0.70;;;10.80;99.90;;;;;;4953775;29;20435;-75
2023/01/08 12:42:10;;;;;;;1.83;0.80;;;10.80;99.90;;;;;;4973571;28;20877;-74
2023/01/08 12:44:38;;;;;;;1.00;0.70;;;10.80;99.90;;;;;;4953038;29;20545;-75
2023/01/08 12:47:15;;;;;;;1.27;0.70;;;10.80;99.90;;;;;;4954224;29;20490;-74
2023/01/08 12:49:53;;;;;;;1.27;0.67;;;10.80;99.90;;;;;;4938207;28;20530;-75
2023/01/08 12:52:28;;;;;;;2.30;0.93;;;10.80;99.90;;;;;;4938387;29;20426;-75
2023/01/08 12:55:01;;;;;;;0.90;0.77;;;10.80;99.90;;;;;;4938259;29;20521;-75
2023/01/08 12:57:33;;;;;;;2.03;0.80;;;10.80;99.90;;;;;;4955024;28;20447;-74
2023/01/08 13:00:19;;;;;;;2.50;0.60;;;10.80;99.90;;;;;;4954182;29;20918;-75
2023/01/08 13:02:48;;;;;;;3.00;0.80;;;10.80;99.90;;;;;;4953539;29;20830;-75
2023/01/08 13:05:17;;;;;;;2.53;0.80;;;10.80;99.90;;;;;;4919108;29;20989;-75
2023/01/08 13:08:05;;;;;;;1.30;0.70;;;10.80;99.90;;;;;;4919190;29;20787;-75
2023/01/08 13:10:31;;;;;;;1.30;0.83;;;10.80;99.90;;;;;;4935984;29;20401;-75
2023/01/08 13:13:00;;;;;;;1.80;0.73;;;10.80;99.90;;;;;;4934716;29;20420;-75
2023/01/08 13:15:29;;;;;;;2.50;1.10;;;10.80;99.90;;;;;;4934711;29;20474;-75